createdAt,value
2022-09-30T00:04:35.180Z,8.93
2022-09-30T00:09:36.770Z,9.55
2022-09-30T00:14:38.333Z,7.55
2022-09-30T00:19:39.946Z,7.22
2022-09-30T00:24:41.650Z,5.65
2022-09-30T00:29:43.224Z,7.68
2022-09-30T00:34:44.888Z,9.02
2022-09-30T00:39:47.073Z,9.80
2022-09-30T00:44:53.359Z,9.07
2022-09-30T00:50:06.509Z,8.38
2022-09-30T00:55:13.791Z,12.48
2022-09-30T01:00:15.478Z,12.50
2022-09-30T01:05:17.311Z,8.85
2022-09-30T01:10:18.842Z,9.95
2022-09-30T01:15:28.507Z,9.13
2022-09-30T01:21:05.537Z,7.50
2022-09-30T01:26:52.063Z,10.48
2022-09-30T01:32:07.936Z,12.32
2022-09-30T01:37:36.907Z,9.38
2022-09-30T01:43:11.709Z,8.93
2022-09-30T01:48:26.320Z,10.13
2022-09-30T01:53:36.693Z,11.13
2022-09-30T01:58:53.171Z,7.53
2022-09-30T02:04:00.378Z,8.32
2022-09-30T02:09:26.377Z,9.18
2022-09-30T02:14:44.130Z,11.68
2022-09-30T02:19:50.935Z,8.43
2022-09-30T02:24:59.166Z,10.93
2022-09-30T02:30:04.116Z,9.90
2022-09-30T02:35:12.082Z,11.05
2022-09-30T02:40:21.064Z,9.18
2022-09-30T02:45:24.279Z,9.50
2022-09-30T02:50:29.034Z,10.75
2022-09-30T02:56:01.644Z,10.20
2022-09-30T03:01:03.597Z,7.88
2022-09-30T03:06:05.571Z,12.13
2022-09-30T03:11:07.878Z,12.13
2022-09-30T03:16:33.914Z,9.02
2022-09-30T03:22:06.429Z,9.25
2022-09-30T03:27:45.999Z,10.35
2022-09-30T03:33:06.134Z,8.45
2022-09-30T03:43:26.049Z,10.98
2022-09-30T03:48:30.844Z,11.15
2022-09-30T03:53:38.379Z,9.13
2022-09-30T03:58:44.545Z,13.05
2022-09-30T04:03:46.762Z,11.35
2022-09-30T04:08:48.886Z,8.20
2022-09-30T04:13:50.482Z,12.63
2022-09-30T04:18:52.027Z,8.57
2022-09-30T04:23:53.587Z,8.82
2022-09-30T04:28:58.204Z,9.27
2022-09-30T04:33:59.704Z,14.68
2022-09-30T04:39:01.357Z,14.63
2022-09-30T04:44:06.369Z,11.80
2022-09-30T04:49:09.473Z,14.73
2022-09-30T04:54:11.155Z,12.18
2022-09-30T04:59:12.748Z,11.27
2022-09-30T05:04:16.147Z,15.88
2022-09-30T05:09:17.698Z,13.48
2022-09-30T05:14:19.321Z,12.35
2022-09-30T05:19:21.187Z,17.05
2022-09-30T05:24:22.768Z,21.23
2022-09-30T05:29:24.319Z,24.85
2022-09-30T05:34:25.982Z,25.50
2022-09-30T05:39:27.482Z,21.58
2022-09-30T05:44:29.031Z,17.40
2022-09-30T05:49:30.543Z,15.48
2022-09-30T05:54:32.080Z,16.08
2022-09-30T05:59:33.995Z,13.55
2022-09-30T06:04:35.616Z,15.15
2022-09-30T06:09:37.566Z,12.63
2022-09-30T06:14:39.203Z,13.68
2022-09-30T06:19:40.709Z,18.17
2022-09-30T06:24:42.587Z,26.08
2022-09-30T06:29:44.121Z,14.90
2022-09-30T06:34:45.873Z,17.08
2022-09-30T06:39:47.448Z,23.63
2022-09-30T06:44:53.049Z,24.58
2022-09-30T06:49:58.826Z,22.45
2022-09-30T06:55:00.445Z,26.42
2022-09-30T07:00:02.413Z,20.95
2022-09-30T07:05:04.400Z,18.55
2022-09-30T07:10:06.443Z,17.27
2022-09-30T07:15:13.563Z,17.85
2022-09-30T07:20:15.447Z,15.30
2022-09-30T07:25:17.440Z,16.90
2022-09-30T07:30:26.631Z,19.85
2022-09-30T07:35:28.870Z,14.82
2022-09-30T07:40:31.385Z,14.07
2022-09-30T07:45:33.129Z,13.48
2022-09-30T07:50:34.760Z,16.35
2022-09-30T07:55:36.309Z,15.60
2022-09-30T08:00:42.730Z,14.82
2022-09-30T08:05:45.300Z,17.10
2022-09-30T08:10:46.916Z,19.90
2022-09-30T08:15:48.746Z,12.98
2022-09-30T08:20:50.416Z,15.43
2022-09-30T08:25:51.990Z,17.30
2022-09-30T08:30:53.544Z,16.30
2022-09-30T08:35:55.212Z,16.55
2022-09-30T08:41:30.902Z,14.40
2022-09-30T08:46:45.181Z,14.43
2022-09-30T08:51:49.728Z,15.13
2022-09-30T08:56:51.410Z,15.55
2022-09-30T09:01:59.152Z,13.10
2022-09-30T09:07:39.910Z,13.70
2022-09-30T09:13:06.275Z,14.23
2022-09-30T09:18:24.294Z,15.70
2022-09-30T09:23:31.239Z,14.77
2022-09-30T09:28:53.196Z,16.20
2022-09-30T09:34:02.122Z,14.60
2022-09-30T09:39:15.788Z,13.98
2022-09-30T09:44:39.749Z,10.48
2022-09-30T09:49:46.367Z,11.10
2022-09-30T09:54:52.907Z,11.00
2022-09-30T10:05:26.086Z,11.90
2022-09-30T10:10:30.188Z,14.25
2022-09-30T10:15:31.936Z,10.95
2022-09-30T10:20:36.646Z,11.25
2022-09-30T10:25:38.377Z,12.70
2022-09-30T10:30:51.503Z,11.75
2022-09-30T10:36:02.404Z,12.30
2022-09-30T10:41:05.652Z,12.45
2022-09-30T10:46:26.692Z,13.25
2022-09-30T10:51:34.896Z,11.98
2022-09-30T10:56:43.019Z,11.38
2022-09-30T11:01:52.625Z,10.00
2022-09-30T11:07:09.999Z,9.98
2022-09-30T11:12:14.860Z,9.05
2022-09-30T11:17:41.664Z,15.38
2022-09-30T11:22:56.713Z,11.88
2022-09-30T11:28:02.393Z,9.18
2022-09-30T11:33:35.718Z,10.90
2022-09-30T11:38:52.955Z,9.63
2022-09-30T11:44:08.260Z,9.38
2022-09-30T11:49:35.217Z,6.65
2022-09-30T11:54:36.673Z,11.02
2022-09-30T11:59:59.622Z,8.93
2022-09-30T12:05:11.976Z,9.02
2022-09-30T12:10:25.420Z,7.60
2022-09-30T12:15:28.318Z,7.35
2022-09-30T12:20:56.511Z,12.10
2022-09-30T12:26:00.271Z,7.93
2022-09-30T12:31:14.935Z,9.18
2022-09-30T12:36:45.651Z,8.82
2022-09-30T12:42:20.769Z,7.43
2022-09-30T12:47:22.260Z,12.13
2022-09-30T12:52:24.661Z,6.90
2022-09-30T12:57:30.811Z,6.63
2022-09-30T13:02:39.619Z,6.47
2022-09-30T13:08:07.003Z,7.65
2022-09-30T13:13:23.644Z,6.68
2022-09-30T13:18:27.978Z,7.47
2022-09-30T13:23:46.904Z,5.18
2022-09-30T13:28:49.750Z,6.47
2022-09-30T13:34:03.481Z,6.18
2022-09-30T13:39:41.184Z,5.18
2022-09-30T13:45:16.232Z,5.68
2022-09-30T13:50:31.211Z,6.75
2022-09-30T13:55:42.182Z,6.22
2022-09-30T14:01:19.296Z,7.18
2022-09-30T14:07:07.485Z,5.20
2022-09-30T14:12:37.194Z,4.53
2022-09-30T14:18:07.063Z,4.97
2022-09-30T14:23:20.271Z,6.55
2022-09-30T14:28:33.645Z,4.40
2022-09-30T14:33:36.459Z,5.22
2022-09-30T14:38:38.983Z,3.75
2022-09-30T14:43:45.015Z,4.47
2022-09-30T14:48:48.481Z,4.82
2022-09-30T14:54:02.457Z,4.63
2022-09-30T14:59:22.367Z,6.43
2022-09-30T15:09:37.225Z,4.10
2022-09-30T15:14:48.038Z,3.33
2022-09-30T15:19:50.496Z,4.40
2022-09-30T15:24:53.725Z,4.25
2022-09-30T15:29:55.863Z,5.65
2022-09-30T15:34:58.732Z,4.05
2022-09-30T15:40:20.420Z,5.80
2022-09-30T15:45:33.488Z,5.80
2022-09-30T15:50:42.220Z,3.88
2022-09-30T15:55:45.778Z,4.97
2022-09-30T16:00:47.980Z,3.85
2022-09-30T16:05:53.762Z,2.90
2022-09-30T16:10:58.362Z,3.63
2022-09-30T16:16:01.966Z,3.08
2022-09-30T16:21:05.622Z,3.85
2022-09-30T16:26:12.872Z,3.10
2022-09-30T16:31:16.252Z,3.80
2022-09-30T16:36:17.889Z,8.50
2022-09-30T16:41:19.571Z,3.17
2022-09-30T16:46:21.244Z,2.30
2022-09-30T16:51:22.798Z,3.08
2022-09-30T16:56:26.502Z,3.17
2022-09-30T17:01:28.597Z,3.00
2022-09-30T17:06:32.165Z,2.92
2022-09-30T17:11:35.494Z,5.75
2022-09-30T17:16:37.571Z,5.30
2022-09-30T17:21:39.329Z,6.93
2022-09-30T17:26:40.862Z,4.40
2022-09-30T17:31:44.725Z,4.72
2022-09-30T17:36:46.307Z,4.32
2022-09-30T17:42:08.986Z,4.72
2022-09-30T17:47:10.626Z,5.95
2022-09-30T17:52:14.516Z,7.30
2022-09-30T17:57:16.070Z,6.25
2022-09-30T18:02:18.231Z,6.18
2022-09-30T18:07:21.000Z,7.05
2022-09-30T18:12:22.544Z,6.35
2022-09-30T18:17:27.255Z,6.20
2022-09-30T18:22:29.523Z,7.18
2022-09-30T18:27:33.853Z,7.45
2022-09-30T18:32:35.574Z,8.30
2022-09-30T18:37:37.077Z,8.38
2022-09-30T18:42:38.623Z,8.32
2022-09-30T18:47:42.227Z,11.93
2022-09-30T18:52:43.770Z,11.55
2022-09-30T18:57:48.300Z,8.98
2022-09-30T19:02:51.977Z,9.23
2022-09-30T19:07:54.407Z,11.55
2022-09-30T19:12:55.980Z,9.18
2022-09-30T19:17:58.617Z,13.23
2022-09-30T19:23:00.188Z,8.35
2022-09-30T19:28:02.499Z,8.52
2022-09-30T19:33:04.195Z,11.55
2022-09-30T19:38:06.035Z,14.23
2022-09-30T19:43:08.067Z,9.30
2022-09-30T19:48:09.600Z,9.65
2022-09-30T19:53:16.299Z,9.85
2022-09-30T19:58:23.075Z,9.40
2022-09-30T20:03:25.501Z,8.65
2022-09-30T20:08:27.072Z,8.82
2022-09-30T20:13:29.299Z,8.57
2022-09-30T20:18:31.809Z,9.43
2022-09-30T20:23:36.321Z,7.47
2022-09-30T20:28:38.204Z,10.45
2022-09-30T20:33:40.689Z,9.27
2022-09-30T20:38:42.177Z,7.97
2022-09-30T20:43:49.171Z,9.25
2022-09-30T20:48:50.823Z,11.80
2022-09-30T20:53:53.962Z,9.50
2022-09-30T20:58:55.690Z,11.05
2022-09-30T21:03:57.237Z,7.05
2022-09-30T21:09:02.681Z,9.15
2022-09-30T21:14:04.301Z,10.45
2022-09-30T21:19:05.883Z,9.88
2022-09-30T21:24:07.542Z,9.68
2022-09-30T21:29:09.075Z,11.63
2022-09-30T21:34:13.946Z,13.10
2022-09-30T21:39:15.645Z,9.07
2022-09-30T21:44:17.244Z,11.07
2022-09-30T21:49:23.000Z,12.05
2022-09-30T21:54:24.684Z,11.63
2022-09-30T21:59:26.289Z,17.30
2022-09-30T22:04:27.792Z,12.75
2022-09-30T22:09:29.321Z,12.00
2022-09-30T22:14:30.839Z,13.27
2022-09-30T22:19:32.331Z,12.18
2022-09-30T22:24:35.307Z,15.07
2022-09-30T22:29:36.920Z,14.43
2022-09-30T22:34:56.944Z,16.45
2022-09-30T22:45:03.668Z,14.70
2022-09-30T22:50:05.521Z,16.83
2022-09-30T22:55:07.395Z,17.60
2022-09-30T23:00:09.689Z,18.38
2022-09-30T23:05:11.199Z,15.15
2022-09-30T23:10:12.762Z,16.45
2022-09-30T23:15:14.288Z,15.52
2022-09-30T23:20:15.882Z,16.77
2022-09-30T23:25:17.407Z,13.23
2022-09-30T23:30:18.983Z,11.93
2022-09-30T23:35:20.513Z,14.02
2022-09-30T23:40:22.009Z,12.90
2022-09-30T23:45:23.587Z,13.00
2022-09-30T23:50:25.356Z,10.13
2022-09-30T23:55:28.027Z,11.50
